Terminal Aerodrome Forecast
Issued by NWS Charleston, WV

Home | Current Version | Previous Version | Text Only | Print | Product List | Glossary On
Versions: 1 2 3 4 5 6 7 8 9 10 11 12 13 14 15 16 17 18 19 20 21 22 23
000
FTUS41 KRLX 231400 AAA
TAFCRW
TAF AMD
KCRW 231442Z 2315/2412 13007KT P6SM SCT070 BKN100
     FM231800 14011G20KT P6SM BKN070
     FM232300 15014G24KT 3SM -RA BR OVC050
     FM240100 15015G25KT 2SM -RA BR OVC040
     FM240600 17014G20KT 6SM BR BKN040
     FM240800 19013KT P6SM BKN080=

USA.gov is the U.S. government's official web portal to all federal, state and local government web resources and services.